sensor_id;sensor_type;location;lat;lon;timestamp;pressure;altitude;pressure_sealevel;temperature;humidity
14117;BME280;7137;51.436;6.544;2023-05-16T00:01:30;101294.28;;;10.33;100.00
14117;BME280;7137;51.436;6.544;2023-05-16T00:04:36;101305.75;;;10.24;100.00
14117;BME280;7137;51.436;6.544;2023-05-16T00:07:38;101298.72;;;10.29;100.00
14117;BME280;7137;51.436;6.544;2023-05-16T00:10:39;101310.13;;;10.24;100.00
14117;BME280;7137;51.436;6.544;2023-05-16T00:13:41;101311.91;;;10.22;100.00
14117;BME280;7137;51.436;6.544;2023-05-16T00:16:42;101312.66;;;10.27;100.00
14117;BME280;7137;51.436;6.544;2023-05-16T00:19:46;101315.22;;;10.30;100.00
14117;BME280;7137;51.436;6.544;2023-05-16T00:22:48;101306.44;;;10.34;100.00
14117;BME280;7137;51.436;6.544;2023-05-16T00:25:49;101301.34;;;10.26;100.00
14117;BME280;7137;51.436;6.544;2023-05-16T00:28:51;101314.41;;;10.26;100.00
14117;BME280;7137;51.436;6.544;2023-05-16T00:31:52;101310.16;;;10.21;100.00
14117;BME280;7137;51.436;6.544;2023-05-16T00:34:55;101316.28;;;10.18;100.00
14117;BME280;7137;51.436;6.544;2023-05-16T00:37:57;101319.88;;;10.14;100.00
14117;BME280;7137;51.436;6.544;2023-05-16T00:40:58;101313.84;;;10.09;100.00
14117;BME280;7137;51.436;6.544;2023-05-16T00:44:00;101322.41;;;10.17;100.00
14117;BME280;7137;51.436;6.544;2023-05-16T00:47:03;101306.06;;;10.07;100.00
14117;BME280;7137;51.436;6.544;2023-05-16T00:50:08;101312.22;;;10.05;100.00
14117;BME280;7137;51.436;6.544;2023-05-16T00:53:10;101316.50;;;10.07;100.00
14117;BME280;7137;51.436;6.544;2023-05-16T00:56:12;101312.31;;;10.00;100.00
14117;BME280;7137;51.436;6.544;2023-05-16T00:59:13;101312.03;;;10.12;100.00
14117;BME280;7137;51.436;6.544;2023-05-16T01:02:15;101309.56;;;10.06;100.00
14117;BME280;7137;51.436;6.544;2023-05-16T01:05:18;101314.91;;;10.00;100.00
14117;BME280;7137;51.436;6.544;2023-05-16T01:08:20;101327.09;;;10.00;100.00
14117;BME280;7137;51.436;6.544;2023-05-16T01:11:33;101320.84;;;10.08;100.00
14117;BME280;7137;51.436;6.544;2023-05-16T01:14:43;101328.72;;;10.05;100.00
14117;BME280;7137;51.436;6.544;2023-05-16T01:17:54;101322.28;;;9.78;100.00
14117;BME280;7137;51.436;6.544;2023-05-16T01:21:00;101335.72;;;10.03;100.00
14117;BME280;7137;51.436;6.544;2023-05-16T01:24:12;101334.97;;;9.97;100.00
14117;BME280;7137;51.436;6.544;2023-05-16T01:27:18;101341.78;;;10.05;100.00
14117;BME280;7137;51.436;6.544;2023-05-16T01:30:20;101340.84;;;10.08;100.00
14117;BME280;7137;51.436;6.544;2023-05-16T01:33:22;101344.47;;;10.02;100.00
14117;BME280;7137;51.436;6.544;2023-05-16T01:36:25;101341.06;;;9.97;100.00
14117;BME280;7137;51.436;6.544;2023-05-16T01:39:36;101344.53;;;9.99;100.00
14117;BME280;7137;51.436;6.544;2023-05-16T01:42:46;101345.47;;;9.94;100.00
14117;BME280;7137;51.436;6.544;2023-05-16T01:46:02;101346.41;;;9.91;100.00
14117;BME280;7137;51.436;6.544;2023-05-16T01:49:15;101361.09;;;9.95;100.00
14117;BME280;7137;51.436;6.544;2023-05-16T01:52:24;101362.69;;;10.04;100.00
14117;BME280;7137;51.436;6.544;2023-05-16T01:55:36;101369.50;;;10.11;100.00
14117;BME280;7137;51.436;6.544;2023-05-16T01:58:41;101368.84;;;10.01;100.00
14117;BME280;7137;51.436;6.544;2023-05-16T02:01:43;101368.13;;;9.92;100.00
14117;BME280;7137;51.436;6.544;2023-05-16T02:04:45;101370.69;;;9.95;100.00
14117;BME280;7137;51.436;6.544;2023-05-16T02:07:47;101375.16;;;9.88;100.00
14117;BME280;7137;51.436;6.544;2023-05-16T02:10:49;101381.88;;;10.01;100.00
14117;BME280;7137;51.436;6.544;2023-05-16T02:13:52;101377.72;;;9.91;100.00
14117;BME280;7137;51.436;6.544;2023-05-16T02:16:53;101389.84;;;9.94;100.00
14117;BME280;7137;51.436;6.544;2023-05-16T02:19:55;101386.53;;;9.84;100.00
14117;BME280;7137;51.436;6.544;2023-05-16T02:22:57;101384.88;;;9.80;100.00
14117;BME280;7137;51.436;6.544;2023-05-16T02:25:58;101395.44;;;9.71;100.00
14117;BME280;7137;51.436;6.544;2023-05-16T02:29:01;101398.78;;;9.80;100.00
14117;BME280;7137;51.436;6.544;2023-05-16T02:32:03;101404.81;;;9.82;100.00
14117;BME280;7137;51.436;6.544;2023-05-16T02:35:05;101401.53;;;9.73;100.00
14117;BME280;7137;51.436;6.544;2023-05-16T02:38:07;101414.78;;;9.61;100.00
14117;BME280;7137;51.436;6.544;2023-05-16T02:41:09;101410.66;;;9.46;100.00
14117;BME280;7137;51.436;6.544;2023-05-16T02:44:12;101412.34;;;9.48;100.00
14117;BME280;7137;51.436;6.544;2023-05-16T02:47:13;101426.31;;;9.43;100.00
14117;BME280;7137;51.436;6.544;2023-05-16T02:50:15;101426.47;;;9.34;100.00
14117;BME280;7137;51.436;6.544;2023-05-16T02:53:17;101427.38;;;9.33;100.00
14117;BME280;7137;51.436;6.544;2023-05-16T02:56:19;101431.91;;;9.20;100.00
14117;BME280;7137;51.436;6.544;2023-05-16T02:59:22;101435.38;;;9.19;100.00
14117;BME280;7137;51.436;6.544;2023-05-16T03:02:23;101435.53;;;9.08;100.00
14117;BME280;7137;51.436;6.544;2023-05-16T03:05:25;101442.44;;;9.11;100.00
14117;BME280;7137;51.436;6.544;2023-05-16T03:08:27;101442.66;;;8.96;100.00
14117;BME280;7137;51.436;6.544;2023-05-16T03:11:28;101444.50;;;8.87;100.00
14117;BME280;7137;51.436;6.544;2023-05-16T03:14:31;101448.78;;;8.91;100.00
14117;BME280;7137;51.436;6.544;2023-05-16T03:17:33;101450.66;;;8.80;100.00
14117;BME280;7137;51.436;6.544;2023-05-16T03:20:34;101455.03;;;8.78;100.00
14117;BME280;7137;51.436;6.544;2023-05-16T03:23:36;101454.25;;;8.70;100.00
14117;BME280;7137;51.436;6.544;2023-05-16T03:26:37;101456.06;;;8.65;100.00
14117;BME280;7137;51.436;6.544;2023-05-16T03:29:40;101462.22;;;8.55;100.00
14117;BME280;7137;51.436;6.544;2023-05-16T03:32:44;101459.59;;;8.58;100.00
14117;BME280;7137;51.436;6.544;2023-05-16T03:35:45;101453.66;;;8.47;100.00
14117;BME280;7137;51.436;6.544;2023-05-16T03:38:47;101460.56;;;8.49;100.00
14117;BME280;7137;51.436;6.544;2023-05-16T03:41:49;101466.69;;;8.44;100.00
14117;BME280;7137;51.436;6.544;2023-05-16T03:44:52;101475.47;;;8.32;100.00
14117;BME280;7137;51.436;6.544;2023-05-16T03:47:55;101473.75;;;8.34;100.00
14117;BME280;7137;51.436;6.544;2023-05-16T03:50:56;101479.81;;;8.33;100.00
14117;BME280;7137;51.436;6.544;2023-05-16T03:53:58;101473.69;;;8.40;100.00
14117;BME280;7137;51.436;6.544;2023-05-16T03:56:59;101476.25;;;8.45;100.00
14117;BME280;7137;51.436;6.544;2023-05-16T04:00:03;101483.19;;;8.46;100.00
14117;BME280;7137;51.436;6.544;2023-05-16T04:03:07;101484.06;;;8.42;100.00
14117;BME280;7137;51.436;6.544;2023-05-16T04:06:09;101497.06;;;8.45;100.00
14117;BME280;7137;51.436;6.544;2023-05-16T04:09:11;101488.34;;;8.50;100.00
14117;BME280;7137;51.436;6.544;2023-05-16T04:12:13;101504.00;;;8.43;100.00
14117;BME280;7137;51.436;6.544;2023-05-16T04:15:16;101508.34;;;8.44;100.00
14117;BME280;7137;51.436;6.544;2023-05-16T04:18:18;101510.94;;;8.44;100.00
14117;BME280;7137;51.436;6.544;2023-05-16T04:21:20;101513.41;;;8.57;100.00
14117;BME280;7137;51.436;6.544;2023-05-16T04:24:21;101510.69;;;8.70;100.00
14117;BME280;7137;51.436;6.544;2023-05-16T04:27:25;101517.59;;;8.72;100.00
14117;BME280;7137;51.436;6.544;2023-05-16T04:30:28;101518.63;;;8.56;100.00
14117;BME280;7137;51.436;6.544;2023-05-16T04:33:30;101529.00;;;8.63;100.00
14117;BME280;7137;51.436;6.544;2023-05-16T04:36:31;101527.38;;;8.52;100.00
14117;BME280;7137;51.436;6.544;2023-05-16T04:39:35;101525.59;;;8.54;100.00
14117;BME280;7137;51.436;6.544;2023-05-16T04:42:37;101526.22;;;8.79;100.00
14117;BME280;7137;51.436;6.544;2023-05-16T04:45:40;101533.28;;;8.68;99.26
14117;BME280;7137;51.436;6.544;2023-05-16T04:48:42;101535.72;;;8.83;100.00
14117;BME280;7137;51.436;6.544;2023-05-16T04:51:44;101546.97;;;8.85;99.52
14117;BME280;7137;51.436;6.544;2023-05-16T04:54:45;101543.53;;;8.83;99.98
14117;BME280;7137;51.436;6.544;2023-05-16T04:57:47;101547.75;;;8.95;99.99
14117;BME280;7137;51.436;6.544;2023-05-16T05:00:50;101548.63;;;8.93;98.86
14117;BME280;7137;51.436;6.544;2023-05-16T05:03:51;101551.25;;;8.92;99.44
14117;BME280;7137;51.436;6.544;2023-05-16T05:06:53;101550.34;;;8.96;98.72
14117;BME280;7137;51.436;6.544;2023-05-16T05:09:54;101559.94;;;8.92;99.28
14117;BME280;7137;51.436;6.544;2023-05-16T05:12:56;101558.91;;;9.06;98.23
14117;BME280;7137;51.436;6.544;2023-05-16T05:15:59;101561.44;;;9.15;98.76
14117;BME280;7137;51.436;6.544;2023-05-16T05:19:03;101556.19;;;9.16;98.16
14117;BME280;7137;51.436;6.544;2023-05-16T05:22:05;101559.44;;;9.34;98.28
14117;BME280;7137;51.436;6.544;2023-05-16T05:25:07;101565.47;;;9.39;96.63
14117;BME280;7137;51.436;6.544;2023-05-16T05:28:09;101567.13;;;9.43;97.08
14117;BME280;7137;51.436;6.544;2023-05-16T05:31:12;101570.88;;;9.22;96.68
14117;BME280;7137;51.436;6.544;2023-05-16T05:34:14;101576.72;;;9.44;96.78
14117;BME280;7137;51.436;6.544;2023-05-16T05:37:16;101579.28;;;9.45;95.52
14117;BME280;7137;51.436;6.544;2023-05-16T05:40:17;101580.13;;;9.47;94.89
14117;BME280;7137;51.436;6.544;2023-05-16T05:43:19;101584.56;;;9.39;95.79
14117;BME280;7137;51.436;6.544;2023-05-16T05:46:23;101584.16;;;9.70;95.39
14117;BME280;7137;51.436;6.544;2023-05-16T05:49:25;101589.25;;;9.80;92.19
14117;BME280;7137;51.436;6.544;2023-05-16T05:52:27;101593.13;;;10.66;89.24
14117;BME280;7137;51.436;6.544;2023-05-16T05:55:29;101600.88;;;12.39;79.47
14117;BME280;7137;51.436;6.544;2023-05-16T05:58:31;101602.91;;;12.94;75.76
14117;BME280;7137;51.436;6.544;2023-05-16T06:01:34;101608.22;;;14.12;71.47
14117;BME280;7137;51.436;6.544;2023-05-16T06:04:35;101613.41;;;15.18;65.35
14117;BME280;7137;51.436;6.544;2023-05-16T06:07:38;101609.34;;;15.33;65.03
14117;BME280;7137;51.436;6.544;2023-05-16T06:10:39;101610.16;;;17.10;57.13
14117;BME280;7137;51.436;6.544;2023-05-16T06:13:41;101621.38;;;16.95;59.49
14117;BME280;7137;51.436;6.544;2023-05-16T06:16:44;101618.34;;;15.97;60.67
14117;BME280;7137;51.436;6.544;2023-05-16T06:19:45;101623.50;;;16.00;61.52
14117;BME280;7137;51.436;6.544;2023-05-16T06:22:47;101626.97;;;16.45;58.59
14117;BME280;7137;51.436;6.544;2023-05-16T06:25:49;101631.34;;;16.24;59.85
14117;BME280;7137;51.436;6.544;2023-05-16T06:28:51;101636.38;;;16.52;58.14
14117;BME280;7137;51.436;6.544;2023-05-16T06:31:54;101635.19;;;17.79;55.88
14117;BME280;7137;51.436;6.544;2023-05-16T06:34:55;101636.34;;;17.14;56.64
14117;BME280;7137;51.436;6.544;2023-05-16T06:37:57;101635.25;;;17.78;52.72
14117;BME280;7137;51.436;6.544;2023-05-16T06:40:58;101636.53;;;16.69;54.89
14117;BME280;7137;51.436;6.544;2023-05-16T06:44:00;101636.94;;;18.17;53.39
14117;BME280;7137;51.436;6.544;2023-05-16T06:47:03;101649.47;;;17.36;54.49
14117;BME280;7137;51.436;6.544;2023-05-16T06:50:07;101649.81;;;16.88;52.51
14117;BME280;7137;51.436;6.544;2023-05-16T06:53:10;101655.06;;;17.29;53.61
14117;BME280;7137;51.436;6.544;2023-05-16T06:56:11;101652.16;;;18.84;48.67
14117;BME280;7137;51.436;6.544;2023-05-16T06:59:13;101646.41;;;15.77;56.25
14117;BME280;7137;51.436;6.544;2023-05-16T07:02:16;101640.63;;;16.34;56.50
14117;BME280;7137;51.436;6.544;2023-05-16T07:05:18;101646.28;;;17.48;51.52
14117;BME280;7137;51.436;6.544;2023-05-16T07:08:19;101652.94;;;17.18;52.66
14117;BME280;7137;51.436;6.544;2023-05-16T07:11:21;101644.53;;;17.87;51.73
14117;BME280;7137;51.436;6.544;2023-05-16T07:14:22;101634.59;;;18.47;49.46
14117;BME280;7137;51.436;6.544;2023-05-16T07:17:25;101644.19;;;20.16;46.88
14117;BME280;7137;51.436;6.544;2023-05-16T07:20:27;101642.59;;;19.32;43.81
14117;BME280;7137;51.436;6.544;2023-05-16T07:23:29;101654.19;;;17.69;48.91
14117;BME280;7137;51.436;6.544;2023-05-16T07:26:30;101645.25;;;17.90;50.40
14117;BME280;7137;51.436;6.544;2023-05-16T07:29:32;101650.91;;;18.37;46.74
14117;BME280;7137;51.436;6.544;2023-05-16T07:32:36;101653.22;;;19.65;45.89
14117;BME280;7137;51.436;6.544;2023-05-16T07:35:37;101655.00;;;19.14;46.85
14117;BME280;7137;51.436;6.544;2023-05-16T07:38:39;101660.56;;;20.70;42.92
14117;BME280;7137;51.436;6.544;2023-05-16T07:41:40;101649.75;;;20.73;40.64
14117;BME280;7137;51.436;6.544;2023-05-16T07:44:42;101649.97;;;23.69;39.47
14117;BME280;7137;51.436;6.544;2023-05-16T07:47:45;101661.41;;;20.70;41.40
14117;BME280;7137;51.436;6.544;2023-05-16T07:50:47;101653.06;;;17.54;49.01
14117;BME280;7137;51.436;6.544;2023-05-16T07:53:49;101650.69;;;17.09;51.85
14117;BME280;7137;51.436;6.544;2023-05-16T07:56:50;101651.88;;;19.23;47.66
14117;BME280;7137;51.436;6.544;2023-05-16T07:59:52;101659.09;;;20.64;44.13
14117;BME280;7137;51.436;6.544;2023-05-16T08:02:56;101649.41;;;21.52;40.17
14117;BME280;7137;51.436;6.544;2023-05-16T08:05:57;101655.31;;;21.43;39.95
14117;BME280;7137;51.436;6.544;2023-05-16T08:08:59;101662.03;;;19.81;42.79
14117;BME280;7137;51.436;6.544;2023-05-16T08:12:01;101655.81;;;16.71;48.71
14117;BME280;7137;51.436;6.544;2023-05-16T08:15:03;101652.56;;;17.26;51.10
14117;BME280;7137;51.436;6.544;2023-05-16T08:18:11;101649.97;;;18.75;46.99
14117;BME280;7137;51.436;6.544;2023-05-16T08:21:13;101650.34;;;18.67;45.77
14117;BME280;7137;51.436;6.544;2023-05-16T08:24:15;101648.16;;;19.10;45.29
14117;BME280;7137;51.436;6.544;2023-05-16T08:27:17;101662.88;;;20.60;41.77
14117;BME280;7137;51.436;6.544;2023-05-16T08:30:19;101651.88;;;23.04;37.68
14117;BME280;7137;51.436;6.544;2023-05-16T08:33:22;101666.28;;;23.14;37.22
14117;BME280;7137;51.436;6.544;2023-05-16T08:36:23;101660.63;;;20.98;39.22
14117;BME280;7137;51.436;6.544;2023-05-16T08:39:25;101651.34;;;22.86;36.92
14117;BME280;7137;51.436;6.544;2023-05-16T08:42:26;101657.03;;;20.99;40.84
14117;BME280;7137;51.436;6.544;2023-05-16T08:45:29;101660.97;;;19.35;44.08
14117;BME280;7137;51.436;6.544;2023-05-16T08:48:33;101649.78;;;17.49;46.97
14117;BME280;7137;51.436;6.544;2023-05-16T08:51:36;101655.63;;;16.32;51.32
14117;BME280;7137;51.436;6.544;2023-05-16T08:54:38;101657.41;;;15.64;53.09
14117;BME280;7137;51.436;6.544;2023-05-16T08:57:41;101662.34;;;15.49;56.83
14117;BME280;7137;51.436;6.544;2023-05-16T09:00:43;101653.25;;;15.81;54.86
14117;BME280;7137;51.436;6.544;2023-05-16T09:03:46;101651.94;;;15.69;56.47
14117;BME280;7137;51.436;6.544;2023-05-16T09:06:49;101659.59;;;15.02;57.49
14117;BME280;7137;51.436;6.544;2023-05-16T09:09:51;101659.50;;;14.53;59.31
14117;BME280;7137;51.436;6.544;2023-05-16T09:12:52;101660.94;;;14.34;61.20
14117;BME280;7137;51.436;6.544;2023-05-16T09:16:11;101655.31;;;15.72;57.20
14117;BME280;7137;51.436;6.544;2023-05-16T09:19:14;101657.72;;;18.24;47.84
14117;BME280;7137;51.436;6.544;2023-05-16T09:22:17;101653.38;;;19.62;45.96
14117;BME280;7137;51.436;6.544;2023-05-16T09:25:19;101655.53;;;18.87;43.34
14117;BME280;7137;51.436;6.544;2023-05-16T09:28:21;101653.00;;;19.19;46.23
14117;BME280;7137;51.436;6.544;2023-05-16T09:31:24;101654.09;;;21.18;41.03
14117;BME280;7137;51.436;6.544;2023-05-16T09:34:28;101652.78;;;19.39;41.97
14117;BME280;7137;51.436;6.544;2023-05-16T09:37:29;101644.16;;;18.49;43.28
14117;BME280;7137;51.436;6.544;2023-05-16T09:40:31;101649.38;;;17.19;48.68
14117;BME280;7137;51.436;6.544;2023-05-16T09:43:32;101640.75;;;17.14;48.85
14117;BME280;7137;51.436;6.544;2023-05-16T09:46:35;101635.81;;;16.86;50.38
14117;BME280;7137;51.436;6.544;2023-05-16T09:49:38;101646.38;;;17.66;49.43
14117;BME280;7137;51.436;6.544;2023-05-16T09:52:40;101654.53;;;17.80;47.42
14117;BME280;7137;51.436;6.544;2023-05-16T09:55:42;101648.06;;;18.23;46.05
14117;BME280;7137;51.436;6.544;2023-05-16T09:58:44;101651.06;;;18.34;47.01
14117;BME280;7137;51.436;6.544;2023-05-16T10:01:47;101652.13;;;16.75;49.44
14117;BME280;7137;51.436;6.544;2023-05-16T10:04:52;101648.94;;;16.45;52.29
14117;BME280;7137;51.436;6.544;2023-05-16T10:07:55;101641.91;;;15.30;53.58
14117;BME280;7137;51.436;6.544;2023-05-16T10:10:57;101657.84;;;15.02;56.96
14117;BME280;7137;51.436;6.544;2023-05-16T10:13:58;101662.66;;;14.63;58.70
14117;BME280;7137;51.436;6.544;2023-05-16T10:17:01;101675.25;;;13.03;70.53
14117;BME280;7137;51.436;6.544;2023-05-16T10:20:06;101666.94;;;12.86;74.62
14117;BME280;7137;51.436;6.544;2023-05-16T10:23:15;101668.50;;;12.93;78.94
14117;BME280;7137;51.436;6.544;2023-05-16T10:26:19;101665.38;;;13.45;77.33
14117;BME280;7137;51.436;6.544;2023-05-16T10:29:21;101657.34;;;14.10;72.58
14117;BME280;7137;51.436;6.544;2023-05-16T10:32:25;101664.28;;;14.94;67.09
14117;BME280;7137;51.436;6.544;2023-05-16T10:35:29;101667.34;;;16.25;63.21
14117;BME280;7137;51.436;6.544;2023-05-16T10:38:32;101666.38;;;16.49;58.46
14117;BME280;7137;51.436;6.544;2023-05-16T10:41:34;101668.13;;;16.05;54.02
14117;BME280;7137;51.436;6.544;2023-05-16T10:44:37;101658.53;;;15.81;57.20
14117;BME280;7137;51.436;6.544;2023-05-16T10:47:39;101657.09;;;16.39;57.00
14117;BME280;7137;51.436;6.544;2023-05-16T10:50:43;101656.03;;;15.53;57.46
14117;BME280;7137;51.436;6.544;2023-05-16T10:53:45;101642.19;;;15.94;59.45
14117;BME280;7137;51.436;6.544;2023-05-16T10:56:54;101644.22;;;15.39;55.51
14117;BME280;7137;51.436;6.544;2023-05-16T10:59:56;101634.69;;;15.84;53.48
14117;BME280;7137;51.436;6.544;2023-05-16T11:03:04;101636.94;;;15.94;51.22
14117;BME280;7137;51.436;6.544;2023-05-16T11:06:08;101642.38;;;16.12;48.92
14117;BME280;7137;51.436;6.544;2023-05-16T11:09:25;101642.91;;;16.63;48.62
14117;BME280;7137;51.436;6.544;2023-05-16T11:12:35;101642.63;;;17.12;48.62
14117;BME280;7137;51.436;6.544;2023-05-16T11:15:37;101651.00;;;16.59;50.16
14117;BME280;7137;51.436;6.544;2023-05-16T11:18:48;101648.66;;;16.09;51.15
14117;BME280;7137;51.436;6.544;2023-05-16T11:25:34;101662.63;;;15.16;56.18
14117;BME280;7137;51.436;6.544;2023-05-16T11:28:38;101660.81;;;14.11;67.66
14117;BME280;7137;51.436;6.544;2023-05-16T11:31:40;101664.38;;;13.80;71.93
14117;BME280;7137;51.436;6.544;2023-05-16T11:34:42;101660.91;;;13.49;74.49
14117;BME280;7137;51.436;6.544;2023-05-16T11:37:46;101658.56;;;13.69;74.45
14117;BME280;7137;51.436;6.544;2023-05-16T11:40:48;101660.47;;;14.49;72.09
14117;BME280;7137;51.436;6.544;2023-05-16T11:43:49;101656.91;;;15.03;61.52
14117;BME280;7137;51.436;6.544;2023-05-16T11:46:51;101644.44;;;15.33;58.58
14117;BME280;7137;51.436;6.544;2023-05-16T11:49:56;101653.91;;;15.64;53.11
14117;BME280;7137;51.436;6.544;2023-05-16T11:52:59;101657.94;;;15.24;50.83
14117;BME280;7137;51.436;6.544;2023-05-16T11:56:01;101651.94;;;15.69;54.11
14117;BME280;7137;51.436;6.544;2023-05-16T11:59:02;101658.06;;;15.69;50.20
14117;BME280;7137;51.436;6.544;2023-05-16T12:02:04;101661.03;;;15.84;49.90
14117;BME280;7137;51.436;6.544;2023-05-16T12:05:07;101661.63;;;15.92;49.32
14117;BME280;7137;51.436;6.544;2023-05-16T12:08:11;101647.38;;;16.19;49.08
14117;BME280;7137;51.436;6.544;2023-05-16T12:11:13;101643.84;;;16.41;47.60
14117;BME280;7137;51.436;6.544;2023-05-16T12:14:15;101630.56;;;16.22;43.03
14117;BME280;7137;51.436;6.544;2023-05-16T12:17:18;101638.41;;;16.23;42.67
14117;BME280;7137;51.436;6.544;2023-05-16T12:20:21;101644.97;;;16.13;42.46
14117;BME280;7137;51.436;6.544;2023-05-16T12:23:26;101644.59;;;16.22;44.35
14117;BME280;7137;51.436;6.544;2023-05-16T12:26:29;101642.66;;;15.82;42.84
14117;BME280;7137;51.436;6.544;2023-05-16T12:29:31;101639.75;;;16.12;46.75
14117;BME280;7137;51.436;6.544;2023-05-16T12:32:35;101631.72;;;15.93;44.64
14117;BME280;7137;51.436;6.544;2023-05-16T12:35:38;101633.72;;;16.30;48.14
14117;BME280;7137;51.436;6.544;2023-05-16T12:38:44;101638.28;;;16.26;48.07
14117;BME280;7137;51.436;6.544;2023-05-16T12:41:46;101642.69;;;16.48;47.27
14117;BME280;7137;51.436;6.544;2023-05-16T12:44:48;101636.47;;;16.71;45.37
14117;BME280;7137;51.436;6.544;2023-05-16T12:47:51;101634.00;;;16.66;44.25
14117;BME280;7137;51.436;6.544;2023-05-16T12:50:52;101643.75;;;16.86;45.10
14117;BME280;7137;51.436;6.544;2023-05-16T12:53:55;101642.47;;;16.74;46.10
14117;BME280;7137;51.436;6.544;2023-05-16T12:56:57;101643.69;;;16.23;46.88
14117;BME280;7137;51.436;6.544;2023-05-16T12:59:59;101648.38;;;15.93;46.34
14117;BME280;7137;51.436;6.544;2023-05-16T13:03:00;101657.72;;;16.24;47.99
14117;BME280;7137;51.436;6.544;2023-05-16T13:06:02;101651.19;;;16.54;47.26
14117;BME280;7137;51.436;6.544;2023-05-16T13:09:06;101643.78;;;16.64;44.52
14117;BME280;7137;51.436;6.544;2023-05-16T13:12:09;101652.47;;;16.66;46.21
14117;BME280;7137;51.436;6.544;2023-05-16T13:15:11;101651.16;;;16.12;47.99
14117;BME280;7137;51.436;6.544;2023-05-16T13:18:13;101641.91;;;16.24;46.53
14117;BME280;7137;51.436;6.544;2023-05-16T13:21:14;101655.81;;;16.27;48.38
14117;BME280;7137;51.436;6.544;2023-05-16T13:24:18;101651.28;;;16.53;47.18
14117;BME280;7137;51.436;6.544;2023-05-16T13:27:19;101656.44;;;16.34;47.07
14117;BME280;7137;51.436;6.544;2023-05-16T13:30:21;101657.09;;;16.39;46.48
14117;BME280;7137;51.436;6.544;2023-05-16T13:33:23;101659.94;;;16.35;46.10
14117;BME280;7137;51.436;6.544;2023-05-16T13:36:25;101658.53;;;16.48;43.59
14117;BME280;7137;51.436;6.544;2023-05-16T13:39:28;101651.66;;;16.22;45.87
14117;BME280;7137;51.436;6.544;2023-05-16T13:42:30;101658.13;;;16.13;46.05
14117;BME280;7137;51.436;6.544;2023-05-16T13:45:32;101662.94;;;16.25;44.15
14117;BME280;7137;51.436;6.544;2023-05-16T13:48:33;101658.31;;;16.52;44.48
14117;BME280;7137;51.436;6.544;2023-05-16T13:51:35;101666.09;;;16.55;43.97
14117;BME280;7137;51.436;6.544;2023-05-16T13:54:38;101663.44;;;16.35;45.42
14117;BME280;7137;51.436;6.544;2023-05-16T13:57:40;101663.53;;;16.10;43.79
14117;BME280;7137;51.436;6.544;2023-05-16T14:00:42;101669.53;;;15.92;44.53
14117;BME280;7137;51.436;6.544;2023-05-16T14:03:44;101666.72;;;15.96;45.81
14117;BME280;7137;51.436;6.544;2023-05-16T14:06:46;101667.91;;;15.88;46.65
14117;BME280;7137;51.436;6.544;2023-05-16T14:09:49;101672.63;;;15.80;45.60
14117;BME280;7137;51.436;6.544;2023-05-16T14:12:51;101674.91;;;15.89;47.53
14117;BME280;7137;51.436;6.544;2023-05-16T14:15:53;101679.88;;;16.20;45.28
14117;BME280;7137;51.436;6.544;2023-05-16T14:18:54;101680.53;;;16.25;47.18
14117;BME280;7137;51.436;6.544;2023-05-16T14:21:56;101680.91;;;16.38;47.11
14117;BME280;7137;51.436;6.544;2023-05-16T14:24:59;101694.31;;;16.10;46.45
14117;BME280;7137;51.436;6.544;2023-05-16T14:28:00;101695.63;;;15.98;46.75
14117;BME280;7137;51.436;6.544;2023-05-16T14:31:02;101696.38;;;16.01;47.50
14117;BME280;7137;51.436;6.544;2023-05-16T14:34:03;101689.50;;;15.97;47.92
14117;BME280;7137;51.436;6.544;2023-05-16T14:37:05;101698.09;;;16.02;45.89
14117;BME280;7137;51.436;6.544;2023-05-16T14:40:10;101693.34;;;15.65;47.45
14117;BME280;7137;51.436;6.544;2023-05-16T14:43:12;101693.59;;;15.58;48.17
14117;BME280;7137;51.436;6.544;2023-05-16T14:46:13;101704.19;;;15.56;49.92
14117;BME280;7137;51.436;6.544;2023-05-16T14:49:16;101700.81;;;15.28;48.78
14117;BME280;7137;51.436;6.544;2023-05-16T14:52:18;101703.81;;;15.17;49.24
14117;BME280;7137;51.436;6.544;2023-05-16T14:55:21;101701.09;;;15.20;51.10
14117;BME280;7137;51.436;6.544;2023-05-16T14:58:23;101705.94;;;15.06;50.89
14117;BME280;7137;51.436;6.544;2023-05-16T15:01:24;101704.38;;;15.27;50.23
14117;BME280;7137;51.436;6.544;2023-05-16T15:04:27;101705.28;;;15.26;49.54
14117;BME280;7137;51.436;6.544;2023-05-16T15:07:28;101710.63;;;15.48;49.36
14117;BME280;7137;51.436;6.544;2023-05-16T15:10:31;101703.88;;;15.65;50.72
14117;BME280;7137;51.436;6.544;2023-05-16T15:13:33;101714.94;;;15.75;49.29
14117;BME280;7137;51.436;6.544;2023-05-16T15:16:34;101712.28;;;15.75;50.69
14117;BME280;7137;51.436;6.544;2023-05-16T15:19:36;101726.47;;;15.46;50.88
14117;BME280;7137;51.436;6.544;2023-05-16T15:22:38;101724.34;;;15.57;50.19
14117;BME280;7137;51.436;6.544;2023-05-16T15:25:41;101732.25;;;15.07;52.73
14117;BME280;7137;51.436;6.544;2023-05-16T15:28:43;101730.94;;;14.94;52.81
14117;BME280;7137;51.436;6.544;2023-05-16T15:31:44;101738.47;;;14.78;51.45
14117;BME280;7137;51.436;6.544;2023-05-16T15:34:46;101739.72;;;14.67;53.89
14117;BME280;7137;51.436;6.544;2023-05-16T15:37:47;101733.50;;;14.69;54.54
14117;BME280;7137;51.436;6.544;2023-05-16T15:40:51;101742.94;;;14.75;54.21
14117;BME280;7137;51.436;6.544;2023-05-16T15:43:52;101744.06;;;14.68;55.56
14117;BME280;7137;51.436;6.544;2023-05-16T15:46:54;101747.28;;;14.76;55.71
14117;BME280;7137;51.436;6.544;2023-05-16T15:49:56;101744.31;;;14.87;56.11
14117;BME280;7137;51.436;6.544;2023-05-16T15:52:57;101754.78;;;14.88;55.00
14117;BME280;7137;51.436;6.544;2023-05-16T15:56:00;101744.25;;;14.88;55.83
14117;BME280;7137;51.436;6.544;2023-05-16T15:59:02;101753.19;;;15.10;55.28
14117;BME280;7137;51.436;6.544;2023-05-16T16:02:04;101746.72;;;14.94;56.24
14117;BME280;7137;51.436;6.544;2023-05-16T16:05:07;101748.78;;;15.11;55.94
14117;BME280;7137;51.436;6.544;2023-05-16T16:08:08;101747.81;;;15.13;54.80
14117;BME280;7137;51.436;6.544;2023-05-16T16:11:11;101753.47;;;15.28;54.79